Time;durP1;ratioP1;P1;durP2;ratioP2;P2;SDS_P1;SDS_P2;PMS_P1;PMS_P2;Temp;Humidity;BMP_temperature;BMP_pressure;BME280_temperature;BME280_humidity;BME280_pressure;Samples;Min_cycle;Max_cycle;Signal;HPM_P1;HPM_P2
2022/01/24 00:02:20;;;;;;;10.20;5.43;;;0.90;99.90;;;;;;5034811;28;20480;-92
2022/01/24 00:04:48;;;;;;;7.80;5.33;;;;;;;;;;5034946;28;20467;-90
2022/01/24 00:07:19;;;;;;;9.40;5.87;;;;;;;;;;5034988;28;20432;-90
2022/01/24 00:09:46;;;;;;;10.13;5.67;;;;;;;;;;5035066;28;20523;-90
2022/01/24 00:12:26;;;;;;;8.93;5.80;;;;;;;;;;5036287;28;20455;-90
2022/01/24 00:15:03;;;;;;;12.43;6.10;;;;;;;;;;5045130;28;20444;-91
2022/01/24 00:17:37;;;;;;;7.83;5.10;;;0.60;99.90;;;;;;5058909;28;20470;-91
2022/01/24 00:28:20;;;;;;;8.60;5.57;;;;;;;;;;5034625;28;20439;-91
2022/01/24 00:30:47;;;;;;;11.57;6.07;;;;;;;;;;5033571;28;20455;-90
2022/01/24 00:33:18;;;;;;;8.93;5.50;;;0.20;99.90;;;;;;5034149;28;20440;-90
2022/01/24 00:35:45;;;;;;;7.80;4.90;;;;;;;;;;5033762;28;20923;-91
2022/01/24 00:38:12;;;;;;;7.40;5.60;;;;;;;;;;5035435;28;20463;-92
2022/01/24 00:40:43;;;;;;;8.47;5.70;;;;;;;;;;5034501;28;20459;-92
2022/01/24 00:43:20;;;;;;;8.03;5.10;;;;;;;;;;5036112;28;20958;-91
2022/01/24 00:45:58;;;;;;;8.17;4.90;;;0.20;99.90;;;;;;5034823;28;20574;-92
2022/01/24 00:48:37;;;;;;;9.10;4.97;;;;;;;;;;5034131;28;20510;-90
2022/01/24 00:54:03;;;;;;;8.73;5.33;;;;;;;;;;5033755;28;20511;-91
2022/01/24 00:56:30;;;;;;;8.00;5.00;;;;;;;;;;5033820;28;20448;-91
2022/01/24 00:58:58;;;;;;;8.07;5.50;;;;;;;;;;5034055;28;20451;-91
2022/01/24 01:01:25;;;;;;;13.63;6.93;;;;;;;;;;5033236;28;20487;-91
2022/01/24 01:03:56;;;;;;;9.07;6.70;;;;;;;;;;5034885;28;20455;-92
2022/01/24 01:06:23;;;;;;;11.47;6.07;;;;;;;;;;5033966;28;20594;-91
2022/01/24 01:19:50;;;;;;;10.53;6.30;;;-0.20;99.90;;;;;;5038362;28;20941;-94
2022/01/24 01:22:17;;;;;;;10.20;6.43;;;;;;;;;;5033077;28;20475;-92
2022/01/24 01:24:50;;;;;;;10.03;5.70;;;;;;;;;;5036523;28;20478;-91
2022/01/24 01:27:22;;;;;;;11.87;7.20;;;;;;;;;;5038497;28;20442;-92
2022/01/24 01:29:55;;;;;;;12.90;7.30;;;;;;;;;;5037437;28;20436;-90
2022/01/24 01:32:39;;;;;;;11.77;7.07;;;;;;;;;;5037857;28;20444;-91
2022/01/24 01:35:25;;;;;;;12.90;7.10;;;-0.30;99.90;;;;;;5038052;28;20483;-91
2022/01/24 01:54:46;;;;;;;9.83;6.67;;;;;;;;;;5037463;28;20427;-90
2022/01/24 01:57:13;;;;;;;10.23;6.07;;;1.30;99.90;;;;;;5037490;28;20436;-92
2022/01/24 01:59:40;;;;;;;11.27;6.90;;;;;;;;;;5037128;28;20479;-92
2022/01/24 02:02:08;;;;;;;9.53;6.20;;;;;;;;;;5036126;28;20455;-93
2022/01/24 02:04:35;;;;;;;11.10;7.17;;;;;;;;;;5037178;28;20471;-91
2022/01/24 02:07:04;;;;;;;10.30;6.97;;;-0.60;99.90;;;;;;5037051;28;20697;-91
2022/01/24 02:09:34;;;;;;;12.03;6.93;;;-0.60;99.90;;;;;;5034372;28;20459;-91
2022/01/24 02:12:01;;;;;;;12.73;8.00;;;;;;;;;;5034578;28;20456;-92
2022/01/24 02:14:34;;;;;;;13.00;8.33;;;;;;;;;;5036939;28;20448;-91
2022/01/24 02:17:06;;;;;;;12.67;6.80;;;;;;;;;;5036545;28;20447;-91
2022/01/24 02:19:48;;;;;;;13.30;7.20;;;;;;;;;;5034455;28;20454;-93
2022/01/24 02:25:07;;;;;;;12.97;7.17;;;;;;;;;;5036296;28;21066;-91
2022/01/24 02:27:43;;;;;;;9.07;7.00;;;;;;;;;;5036605;28;20787;-92
2022/01/24 02:30:23;;;;;;;13.20;7.97;;;-0.50;99.90;;;;;;5035876;28;20774;-92
2022/01/24 02:32:50;;;;;;;11.50;7.00;;;;;;;;;;5036435;28;20451;-93
2022/01/24 02:35:17;;;;;;;15.97;8.40;;;;;;;;;;5036852;28;20432;-92
2022/01/24 02:37:46;;;;;;;13.17;7.43;;;-0.70;99.90;;;;;;5037982;28;20460;-91
2022/01/24 02:40:16;;;;;;;11.37;6.90;;;;;;;;;;5037830;28;20949;-91
2022/01/24 02:48:28;;;;;;;9.90;6.57;;;;;;;;;;4995104;28;20445;-92
2022/01/24 02:53:55;;;;;;;11.77;7.10;;;-0.80;99.90;;;;;;5037699;28;20958;-91
2022/01/24 02:56:22;;;;;;;10.43;7.40;;;;;;;;;;5046290;28;20443;-91
2022/01/24 02:58:49;;;;;;;15.53;7.50;;;;;;;;;;5058833;28;20435;-91
2022/01/24 03:01:16;;;;;;;16.90;8.07;;;;;;;;;;5039035;28;20484;-92
2022/01/24 03:03:44;;;;;;;12.40;7.70;;;;;;;;;;5037075;28;20841;-90
2022/01/24 03:06:11;;;;;;;13.07;7.20;;;;;;;;;;5035974;28;20533;-91
2022/01/24 03:08:40;;;;;;;14.63;7.67;;;;;;;;;;5035675;28;20459;-90
2022/01/24 03:11:09;;;;;;;13.47;7.70;;;-0.80;99.90;;;;;;5036012;28;20456;-90
2022/01/24 03:13:36;;;;;;;16.40;9.63;;;;;;;;;;5035500;28;20505;-90
2022/01/24 03:16:06;;;;;;;13.07;7.40;;;-0.80;99.90;;;;;;5034616;28;20444;-91
2022/01/24 03:18:33;;;;;;;10.43;6.37;;;;;;;;;;5035656;28;20448;-89
2022/01/24 03:21:01;;;;;;;12.30;7.10;;;;;;;;;;5035486;28;20448;-91
2022/01/24 03:23:28;;;;;;;12.00;8.20;;;;;;;;;;5035419;28;20463;-89
2022/01/24 03:25:55;;;;;;;14.80;8.67;;;;;;;;;;5035744;28;20484;-90
2022/01/24 03:28:26;;;;;;;11.03;7.63;;;-0.90;99.90;;;;;;5035320;28;20452;-91
2022/01/24 03:30:54;;;;;;;11.70;6.80;;;;;;;;;;5034605;28;20451;-91
2022/01/24 03:33:21;;;;;;;10.97;7.13;;;;;;;;;;5037668;28;20428;-90
2022/01/24 03:35:48;;;;;;;12.53;7.47;;;;;;;;;;5035516;28;20471;-89
2022/01/24 03:38:15;;;;;;;12.10;6.60;;;;;;;;;;5033051;28;20928;-90
2022/01/24 03:40:43;;;;;;;13.30;7.00;;;;;;;;;;5026269;28;20905;-92
2022/01/24 03:43:10;;;;;;;12.77;7.80;;;;;;;;;;5020876;28;20916;-91
2022/01/24 03:48:38;;;;;;;10.50;6.80;;;;;;;;;;5031553;28;20873;-90
2022/01/24 03:51:07;;;;;;;10.87;7.60;;;;;;;;;;5034288;28;20456;-90
2022/01/24 03:53:34;;;;;;;10.20;6.43;;;;;;;;;;5034453;28;20432;-91
2022/01/24 03:56:11;;;;;;;11.47;6.70;;;-1.00;99.90;;;;;;5032719;28;20451;-90
2022/01/24 03:58:38;;;;;;;11.73;7.83;;;;;;;;;;5034528;28;20467;-90
2022/01/24 04:01:08;;;;;;;9.13;6.67;;;-1.00;99.90;;;;;;5033866;28;20490;-91
2022/01/24 04:03:35;;;;;;;10.30;7.00;;;;;;;;;;5033804;28;20452;-90
2022/01/24 04:06:02;;;;;;;9.50;6.83;;;;;;;;;;5033399;28;20484;-89
2022/01/24 04:08:30;;;;;;;11.93;7.80;;;;;;;;;;5034028;28;20444;-92
2022/01/24 04:10:58;;;;;;;11.23;7.50;;;;;;;;;;5034567;28;20849;-92
2022/01/24 04:13:30;;;;;;;10.10;6.87;;;;;;;;;;5034374;28;20483;-89
2022/01/24 04:18:51;;;;;;;10.87;7.00;;;-1.10;99.90;;;;;;5010359;28;20491;-92
2022/01/24 04:21:19;;;;;;;10.13;6.97;;;;;;;;;;5023585;28;20827;-90
2022/01/24 04:23:50;;;;;;;9.43;6.80;;;;;;;;;;5034137;28;20456;-90
2022/01/24 04:26:20;;;;;;;10.27;6.47;;;-1.10;99.90;;;;;;5034121;28;20514;-90
2022/01/24 04:28:47;;;;;;;11.03;6.90;;;;;;;;;;5033846;28;20444;-91
2022/01/24 04:31:14;;;;;;;11.43;7.10;;;;;;;;;;5033445;28;20782;-91
2022/01/24 04:33:42;;;;;;;12.60;7.27;;;-1.20;99.90;;;;;;5033714;28;20458;-88
2022/01/24 04:36:09;;;;;;;13.30;7.37;;;;;;;;;;5033970;28;20444;-92
2022/01/24 04:38:36;;;;;;;12.40;7.27;;;;;;;;;;5034397;28;20452;-91
2022/01/24 04:41:12;;;;;;;8.97;6.13;;;;;;;;;;5031529;28;20455;-90
2022/01/24 04:43:52;;;;;;;11.83;7.17;;;;;;;;;;5033696;28;20439;-92
2022/01/24 04:46:42;;;;;;;11.87;7.77;;;;;;;;;;5033115;28;20927;-92
2022/01/24 04:52:08;;;;;;;11.17;6.47;;;;;;;;;;5034401;28;20531;-91
2022/01/24 04:54:41;;;;;;;13.07;7.23;;;;;;;;;;5033804;28;20456;-92
2022/01/24 04:57:09;;;;;;;10.60;7.10;;;-1.30;99.90;;;;;;5033830;28;20815;-89
2022/01/24 04:59:36;;;;;;;11.20;7.37;;;;;;;;;;5033546;28;20467;-90
2022/01/24 05:02:03;;;;;;;17.80;7.77;;;;;;;;;;5033464;28;20448;-92
2022/01/24 05:04:32;;;;;;;9.73;6.43;;;-1.40;99.90;;;;;;5034083;28;20451;-91
2022/01/24 05:06:59;;;;;;;11.23;6.73;;;;;;;;;;5033962;28;20498;-92
2022/01/24 05:09:28;;;;;;;12.53;7.10;;;;;;;;;;5034190;28;20444;-92
2022/01/24 05:12:00;;;;;;;14.27;8.13;;;;;;;;;;5034185;28;20558;-93
2022/01/24 05:25:29;;;;;;;11.27;7.40;;;;;;;;;;5034250;28;20431;-91
2022/01/24 05:27:57;;;;;;;12.27;7.47;;;;;;;;;;5033964;28;20827;-92
2022/01/24 05:30:24;;;;;;;11.57;6.87;;;;;;;;;;5033670;28;20448;-91
2022/01/24 05:32:51;;;;;;;11.73;7.37;;;;;;;;;;5035617;28;20456;-90
2022/01/24 05:35:19;;;;;;;10.83;6.50;;;-1.40;99.90;;;;;;5039837;28;20452;-94
2022/01/24 05:37:46;;;;;;;12.87;7.80;;;;;;;;;;5044950;28;20441;-91
2022/01/24 05:40:14;;;;;;;13.40;8.00;;;;;;;;;;5034730;28;20455;-89
2022/01/24 05:42:41;;;;;;;14.30;8.03;;;;;;;;;;5049020;28;20444;-89
2022/01/24 05:45:09;;;;;;;19.90;9.07;;;-1.50;99.90;;;;;;5037676;28;20888;-89
2022/01/24 05:47:38;;;;;;;13.27;8.13;;;-1.50;99.90;;;;;;5038437;28;20487;-91
2022/01/24 05:50:06;;;;;;;14.13;9.43;;;-1.60;99.90;;;;;;5037184;28;20472;-89
2022/01/24 05:52:34;;;;;;;12.43;8.67;;;-1.50;99.90;;;;;;5047456;28;20446;-91
2022/01/24 05:55:04;;;;;;;14.50;9.13;;;;;;;;;;5048441;28;20944;-91
2022/01/24 05:57:31;;;;;;;14.00;9.40;;;;;;;;;;5047674;28;20446;-89
2022/01/24 05:59:58;;;;;;;14.80;9.10;;;;;;;;;;5041518;28;20562;-91
2022/01/24 06:02:28;;;;;;;13.00;8.20;;;-1.60;99.90;;;;;;5046147;28;20510;-92
2022/01/24 06:04:57;;;;;;;12.27;8.10;;;;;;;;;;5045854;28;20558;-90
2022/01/24 06:07:24;;;;;;;11.93;7.83;;;;;;;;;;5053390;28;20490;-89
2022/01/24 06:09:53;;;;;;;12.47;7.90;;;;;;;;;;5048447;28;20442;-90
2022/01/24 06:12:22;;;;;;;14.87;8.90;;;;;;;;;;5057793;28;20454;-88
2022/01/24 06:14:49;;;;;;;12.90;7.83;;;;;;;;;;5045396;28;20476;-87
2022/01/24 06:17:17;;;;;;;10.90;7.27;;;;;;;;;;5055449;28;20450;-90
2022/01/24 06:19:44;;;;;;;12.90;8.03;;;;;;;;;;5057922;28;20965;-89
2022/01/24 06:22:12;;;;;;;13.60;7.63;;;;;;;;;;5057741;28;20463;-91
2022/01/24 06:24:39;;;;;;;11.73;7.43;;;;;;;;;;5058722;28;20439;-87
2022/01/24 06:27:07;;;;;;;13.97;8.90;;;-1.60;99.90;;;;;;5058394;28;20494;-89
2022/01/24 06:29:35;;;;;;;12.63;8.57;;;;;;;;;;5058459;28;20450;-88
2022/01/24 06:32:02;;;;;;;14.60;8.83;;;;;;;;;;5057428;28;20446;-90
2022/01/24 06:34:29;;;;;;;13.90;8.77;;;;;;;;;;5057540;28;20439;-90
2022/01/24 06:36:56;;;;;;;13.77;8.83;;;;;;;;;;5057533;28;20447;-88
2022/01/24 06:39:26;;;;;;;13.30;7.77;;;-1.70;99.90;;;;;;5056332;28;20464;-91
2022/01/24 06:42:07;;;;;;;13.67;8.40;;;;;;;;;;5056381;28;20443;-89
2022/01/24 06:44:35;;;;;;;12.67;8.70;;;-1.70;99.90;;;;;;5056777;28;20550;-89
2022/01/24 06:47:02;;;;;;;10.87;7.80;;;;;;;;;;5053119;28;20471;-89
2022/01/24 06:49:31;;;;;;;14.50;8.30;;;;;;;;;;5054808;28;20447;-89
2022/01/24 06:51:58;;;;;;;12.50;7.30;;;;;;;;;;5056219;28;20451;-92
2022/01/24 06:54:25;;;;;;;16.30;8.07;;;;;;;;;;5055875;28;20504;-90
2022/01/24 06:56:52;;;;;;;12.23;7.70;;;;;;;;;;5056403;28;20459;-89
2022/01/24 06:59:19;;;;;;;13.20;8.83;;;;;;;;;;5056019;28;20447;-88
2022/01/24 07:01:47;;;;;;;10.20;7.50;;;-1.80;99.90;;;;;;5055501;28;20454;-91
2022/01/24 07:04:14;;;;;;;13.40;9.30;;;;;;;;;;5057106;28;20447;-90
2022/01/24 07:06:41;;;;;;;12.90;8.00;;;;;;;;;;5057227;28;20448;-92
2022/01/24 07:09:09;;;;;;;11.40;7.93;;;-1.80;99.90;;;;;;5057255;28;20402;-93
2022/01/24 07:11:36;;;;;;;12.20;8.20;;;;;;;;;;5058791;28;20435;-92
2022/01/24 07:14:10;;;;;;;14.50;8.20;;;;;;;;;;5055328;28;20439;-91
2022/01/24 07:17:00;;;;;;;15.40;9.43;;;;;;;;;;5057433;28;20869;-92
2022/01/24 07:19:28;;;;;;;13.57;8.60;;;-1.70;99.90;;;;;;5055886;28;20537;-93
2022/01/24 07:21:55;;;;;;;11.70;7.47;;;;;;;;;;5058820;28;20536;-91
2022/01/24 07:24:22;;;;;;;13.57;8.27;;;;;;;;;;5057104;28;20462;-91
2022/01/24 07:26:49;;;;;;;16.37;9.50;;;;;;;;;;5056059;28;20447;-90
2022/01/24 07:29:16;;;;;;;14.40;9.10;;;;;;;;;;5055961;28;20432;-91
2022/01/24 07:31:43;;;;;;;13.57;8.37;;;;;;;;;;5054773;28;20439;-89
2022/01/24 07:34:11;;;;;;;16.13;9.33;;;;;;;;;;5055527;28;20810;-91
2022/01/24 07:36:39;;;;;;;18.93;9.90;;;-1.10;99.90;;;;;;5055474;28;20790;-92
2022/01/24 07:39:06;;;;;;;13.17;8.07;;;;;;;;;;5056051;28;20439;-93
2022/01/24 07:41:41;;;;;;;13.33;8.93;;;;;;;;;;5055684;28;20451;-92
2022/01/24 07:44:08;;;;;;;16.10;9.80;;;;;;;;;;5063012;28;20435;-90
2022/01/24 07:46:36;;;;;;;14.93;8.97;;;;;;;;;;5069229;28;20934;-91
2022/01/24 07:49:04;;;;;;;12.90;9.07;;;-1.10;99.90;;;;;;5068462;28;20491;-89
2022/01/24 07:51:31;;;;;;;18.23;9.50;;;;;;;;;;5069245;28;20446;-91
2022/01/24 07:53:59;;;;;;;14.10;9.10;;;-1.00;99.90;;;;;;5068281;28;20450;-90
2022/01/24 07:56:26;;;;;;;16.30;9.77;;;;;;;;;;5060771;28;20443;-92
2022/01/24 07:58:54;;;;;;;14.97;8.90;;;;;;;;;;5064947;28;20439;-90
2022/01/24 08:01:21;;;;;;;14.90;9.70;;;;;;;;;;5047844;28;20484;-90
2022/01/24 08:03:48;;;;;;;11.73;8.40;;;;;;;;;;5055307;22;20494;-90
2022/01/24 08:06:16;;;;;;;13.67;8.30;;;;;;;;;;5062420;28;20824;-88
2022/01/24 08:08:43;;;;;;;17.40;9.90;;;;;;;;;;5057235;28;20540;-88
2022/01/24 08:11:11;;;;;;;13.70;10.03;;;-0.40;99.90;;;;;;5058615;28;20449;-89
2022/01/24 08:13:39;;;;;;;17.10;10.30;;;;;;;;;;5060222;28;20447;-92
2022/01/24 08:16:06;;;;;;;14.67;9.67;;;;;;;;;;5076894;28;20427;-90
2022/01/24 08:18:33;;;;;;;13.60;9.10;;;;;;;;;;5070297;28;20447;-88
2022/01/24 08:21:00;;;;;;;14.87;9.77;;;;;;;;;;5056331;28;20474;-89
2022/01/24 08:23:27;;;;;;;21.63;10.57;;;;;;;;;;5053397;28;20821;-89
2022/01/24 08:25:55;;;;;;;14.37;9.73;;;;;;;;;;5066037;28;20516;-94
2022/01/24 08:28:23;;;;;;;24.53;13.67;;;0.30;99.90;;;;;;5071356;28;20491;-88
2022/01/24 08:30:52;;;;;;;17.90;12.70;;;;;;;;;;5057881;28;20497;-89
2022/01/24 08:33:19;;;;;;;19.60;13.40;;;;;;;;;;5066907;28;20475;-93
2022/01/24 08:35:46;;;;;;;30.07;20.50;;;;;;;;;;5070088;28;20449;-92
2022/01/24 08:38:15;;;;;;;23.90;15.07;;;;;;;;;;5063291;28;20447;-91
2022/01/24 08:40:46;;;;;;;27.17;17.90;;;0.80;99.90;;;;;;5070849;28;20458;-91
2022/01/24 08:43:13;;;;;;;23.87;14.47;;;;;;;;;;5056229;28;20459;-91
2022/01/24 08:45:45;;;;;;;25.97;13.27;;;1.20;99.90;;;;;;5059106;28;20453;-91
2022/01/24 08:48:12;;;;;;;24.50;15.07;;;;;;;;;;5058599;28;20990;-92
2022/01/24 08:50:40;;;;;;;27.53;18.03;;;;;;;;;;5062931;28;20477;-90
2022/01/24 08:53:07;;;;;;;20.33;13.60;;;;;;;;;;5066182;28;20458;-90
2022/01/24 08:55:35;;;;;;;23.50;15.60;;;1.70;99.90;;;;;;5063876;28;20810;-95
2022/01/24 08:58:04;;;;;;;22.20;14.47;;;1.90;99.90;;;;;;5060435;28;20446;-91
2022/01/24 09:00:32;;;;;;;21.03;13.40;;;2.10;99.90;;;;;;5058798;28;20447;-91
2022/01/24 09:03:00;;;;;;;20.33;12.50;;;2.30;99.90;;;;;;5059643;28;20447;-90
2022/01/24 09:05:34;;;;;;;20.30;13.57;;;;;;;;;;5060295;28;20483;-91
2022/01/24 09:08:01;;;;;;;18.23;11.87;;;;;;;;;;5063450;28;20490;-91
2022/01/24 09:13:30;;;;;;;16.97;11.90;;;;;;;;;;5040538;28;20522;-91
2022/01/24 09:16:21;;;;;;;16.10;11.60;;;5.50;99.90;;;;;;5072370;28;20451;-90
2022/01/24 09:19:16;;;;;;;14.20;10.77;;;6.40;99.90;;;;;;5070348;28;20467;-92
2022/01/24 09:21:43;;;;;;;16.37;10.50;;;;;;;;;;5068040;28;20447;-92
2022/01/24 09:24:12;;;;;;;13.83;9.13;;;6.90;99.90;;;;;;5067139;28;20459;-92
2022/01/24 09:26:39;;;;;;;14.47;10.67;;;6.80;99.90;;;;;;5062682;28;20965;-94
2022/01/24 09:29:06;;;;;;;11.60;9.37;;;;;;;;;;5059621;28;20485;-94
2022/01/24 09:31:34;;;;;;;9.50;8.43;;;;;;;;;;5064614;28;20459;-92
2022/01/24 09:34:03;;;;;;;12.93;8.90;;;;;;;;;;5082608;22;20491;-93
2022/01/24 09:36:31;;;;;;;11.30;9.13;;;;;;;;;;5062660;28;20461;-92
2022/01/24 09:38:58;;;;;;;14.20;9.10;;;;;;;;;;5063946;28;20520;-91
2022/01/24 09:41:25;;;;;;;8.87;7.90;;;;;;;;;;5063413;28;20441;-93
2022/01/24 09:43:53;;;;;;;8.60;7.77;;;8.30;99.90;;;;;;5066942;28;20474;-91
2022/01/24 09:46:20;;;;;;;7.30;6.30;;;;;;;;;;5059815;28;20463;-93
2022/01/24 09:48:47;;;;;;;8.13;7.30;;;;;;;;;;5061098;28;20496;-94
2022/01/24 09:51:16;;;;;;;7.70;6.77;;;;;;;;;;5064333;28;20794;-94
2022/01/24 09:53:45;;;;;;;7.83;6.53;;;;;;;;;;5061534;28;20451;-93
2022/01/24 09:56:12;;;;;;;9.50;7.90;;;;;;;;;;5062263;28;20556;-95
2022/01/24 09:58:39;;;;;;;9.90;6.17;;;;;;;;;;5062025;28;20983;-93
2022/01/24 10:01:08;;;;;;;7.40;6.50;;;8.40;99.90;;;;;;5063857;28;20449;-94
2022/01/24 10:03:36;;;;;;;9.33;7.27;;;;;;;;;;5063975;28;20499;-95
2022/01/24 10:06:03;;;;;;;8.40;6.80;;;;;;;;;;5069979;28;20448;-94
2022/01/24 10:11:28;;;;;;;9.40;5.70;;;;;;;;;;5069996;28;20795;-91
2022/01/24 10:19:23;;;;;;;8.00;6.17;;;9.50;99.90;;;;;;5066607;28;20491;-92
2022/01/24 10:22:02;;;;;;;7.50;5.83;;;9.30;99.90;;;;;;5065835;28;20462;-91
2022/01/24 10:24:36;;;;;;;8.80;7.00;;;8.80;99.90;;;;;;5065491;28;20456;-93
2022/01/24 10:27:12;;;;;;;9.20;6.10;;;9.00;99.90;;;;;;5067717;28;20450;-94
2022/01/24 10:29:51;;;;;;;8.07;6.07;;;9.40;99.90;;;;;;5043590;28;20879;-94
2022/01/24 10:32:40;;;;;;;9.30;6.80;;;10.30;99.00;;;;;;5066543;28;20981;-93
2022/01/24 10:35:31;;;;;;;7.80;6.43;;;9.80;99.90;;;;;;5060775;28;20490;-95
2022/01/24 10:38:23;;;;;;;7.23;6.50;;;9.90;99.70;;;;;;5042885;28;20515;-95
2022/01/24 10:40:53;;;;;;;7.47;6.77;;;;;;;;;;5038121;28;20455;-93
2022/01/24 10:43:34;;;;;;;5.60;5.10;;;;;;;;;;5039237;28;20461;-94
2022/01/24 10:46:02;;;;;;;9.00;6.67;;;;;;;;;;5042287;28;20465;-93
2022/01/24 10:48:31;;;;;;;6.53;5.93;;;9.70;99.20;;;;;;5044590;28;20476;-95
2022/01/24 10:51:10;;;;;;;7.87;7.07;;;10.80;99.90;;;;;;5045362;28;20460;-92
2022/01/24 10:53:41;;;;;;;5.00;4.50;;;9.90;99.00;;;;;;5046503;28;20451;-93
2022/01/24 10:56:27;;;;;;;6.03;5.00;;;10.20;97.90;;;;;;5047054;28;20434;-95
2022/01/24 10:59:01;;;;;;;6.10;5.50;;;10.80;97.40;;;;;;5058415;28;20476;-93
2022/01/24 11:01:29;;;;;;;5.00;4.40;;;;;;;;;;5054450;23;20426;-94
2022/01/24 11:04:00;;;;;;;5.60;4.63;;;;;;;;;;5039487;28;20441;-93
2022/01/24 11:06:28;;;;;;;6.90;4.80;;;10.00;97.70;;;;;;5037819;28;20827;-90
2022/01/24 11:09:13;;;;;;;5.03;4.10;;;10.30;97.50;;;;;;5035234;28;20462;-91
2022/01/24 11:11:41;;;;;;;5.20;4.70;;;;;;;;;;5038510;28;20447;-89
2022/01/24 11:14:13;;;;;;;6.63;5.67;;;10.50;97.20;;;;;;5036545;28;20447;-90
2022/01/24 11:16:41;;;;;;;6.53;5.93;;;10.80;96.90;;;;;;5034019;28;20957;-89
2022/01/24 11:19:15;;;;;;;5.57;5.03;;;;;;;;;;5046667;28;20853;-89
2022/01/24 11:21:43;;;;;;;6.87;6.03;;;;;;;;;;5048161;28;20473;-89
2022/01/24 11:24:16;;;;;;;5.80;5.20;;;;;;;;;;5041641;28;20497;-89
2022/01/24 11:26:45;;;;;;;5.83;4.90;;;10.30;97.00;;;;;;5021219;28;20450;-90
2022/01/24 11:29:14;;;;;;;5.23;4.73;;;10.40;97.00;;;;;;5023735;28;20458;-89
2022/01/24 11:31:45;;;;;;;5.70;5.13;;;10.10;97.20;;;;;;5015939;28;20463;-90
2022/01/24 11:34:20;;;;;;;9.50;7.90;;;10.40;97.20;;;;;;5016170;28;20929;-92
2022/01/24 11:36:48;;;;;;;4.90;4.40;;;10.40;96.70;;;;;;5035256;28;20792;-88
2022/01/24 11:39:22;;;;;;;7.33;5.10;;;10.80;96.40;;;;;;5037171;28;21009;-89
2022/01/24 11:41:49;;;;;;;7.87;5.43;;;;;;;;;;5038664;28;20885;-90
2022/01/24 11:44:21;;;;;;;5.83;5.23;;;10.60;97.40;;;;;;5037022;28;20448;-89
2022/01/24 11:46:52;;;;;;;6.57;5.97;;;10.60;97.40;;;;;;5035482;28;20788;-88
2022/01/24 11:49:21;;;;;;;7.20;5.87;;;10.40;97.30;;;;;;5028904;28;20504;-91
2022/01/24 11:51:50;;;;;;;13.73;10.43;;;12.40;97.40;;;;;;5038040;28;20474;-90
2022/01/24 11:54:31;;;;;;;6.33;5.73;;;10.30;96.70;;;;;;5041712;28;20473;-89
2022/01/24 11:57:29;;;;;;;6.77;5.43;;;10.50;96.30;;;;;;5053986;28;20445;-90
2022/01/24 12:00:16;;;;;;;7.33;4.43;;;10.50;97.00;;;;;;5050778;28;20501;-88
2022/01/24 12:02:46;;;;;;;7.60;5.90;;;10.40;97.10;;;;;;5047401;28;20996;-94
2022/01/24 12:05:22;;;;;;;6.80;5.70;;;;;;;;;;5072629;28;20395;-94
2022/01/24 12:07:50;;;;;;;18.97;12.60;;;;;;;;;;5060976;28;20468;-93
2022/01/24 12:10:42;;;;;;;5.67;4.80;;;10.00;97.10;;;;;;5059944;28;20462;-93
2022/01/24 12:13:14;;;;;;;7.27;6.53;;;10.10;97.70;;;;;;5058199;28;20446;-95
2022/01/24 12:16:15;;;;;;;8.97;6.43;;;;;;;;;;5060904;28;20492;-93
2022/01/24 12:19:03;;;;;;;8.83;4.97;;;;;;;;;;5065969;28;20481;-93
2022/01/24 12:21:35;;;;;;;8.60;7.33;;;9.50;99.60;;;;;;5059145;28;20457;-91
2022/01/24 12:24:07;;;;;;;5.70;4.97;;;9.10;99.90;;;;;;5048502;28;20936;-92
2022/01/24 12:26:36;;;;;;;6.00;4.80;;;9.00;99.90;;;;;;5015395;28;20447;-89
2022/01/24 12:29:08;;;;;;;6.73;5.07;;;9.40;99.90;;;;;;5055195;23;21030;-89
2022/01/24 12:31:38;;;;;;;5.30;4.80;;;10.10;98.60;;;;;;4978159;28;20555;-89
2022/01/24 12:34:11;;;;;;;9.00;5.93;;;10.00;98.50;;;;;;4974854;28;20450;-91
2022/01/24 12:37:07;;;;;;;8.47;6.83;;;10.00;97.80;;;;;;4985863;28;20446;-91
2022/01/24 12:39:46;;;;;;;6.93;5.10;;;9.80;98.70;;;;;;4998526;28;20504;-95
2022/01/24 12:42:19;;;;;;;5.57;4.97;;;9.50;99.50;;;;;;4993676;28;21006;-90
2022/01/24 12:47:33;;;;;;;5.80;5.10;;;;;;;;;;4999736;28;20519;-89
2022/01/24 12:50:00;;;;;;;12.03;6.70;;;;;;;;;;4995926;28;20458;-89
2022/01/24 12:52:29;;;;;;;6.10;4.80;;;10.50;96.90;;;;;;4992582;28;20948;-90
2022/01/24 12:55:04;;;;;;;8.33;4.83;;;10.10;97.20;;;;;;4992525;28;20764;-91
2022/01/24 12:57:37;;;;;;;6.33;4.43;;;;;;;;;;5038303;28;20455;-89
2022/01/24 13:00:08;;;;;;;8.50;6.60;;;10.00;97.80;;;;;;5036816;28;20497;-90
2022/01/24 13:02:38;;;;;;;5.20;4.70;;;10.90;97.20;;;;;;5050025;28;20477;-89
2022/01/24 13:05:07;;;;;;;6.33;4.80;;;11.50;97.00;;;;;;5062395;28;20811;-89
2022/01/24 13:07:37;;;;;;;7.03;4.57;;;10.40;96.80;;;;;;5063947;28;20478;-90
2022/01/24 13:10:07;;;;;;;4.17;3.77;;;10.80;96.60;;;;;;5062516;28;20794;-89
2022/01/24 13:12:34;;;;;;;7.10;5.83;;;;;;;;;;5056737;28;20442;-89
2022/01/24 13:15:05;;;;;;;7.17;4.57;;;;;;;;;;5063500;28;20462;-90
2022/01/24 13:23:10;;;;;;;11.87;6.20;;;11.00;96.30;;;;;;5067881;28;21053;-90
2022/01/24 13:25:41;;;;;;;8.83;4.63;;;10.80;96.80;;;;;;5084549;28;20820;-90
2022/01/24 13:28:12;;;;;;;8.37;4.43;;;11.40;95.80;;;;;;5088741;28;20479;-90
2022/01/24 13:30:41;;;;;;;12.47;6.80;;;11.40;95.60;;;;;;5085580;28;20457;-92
2022/01/24 13:33:11;;;;;;;6.70;4.60;;;11.60;95.50;;;;;;5085889;28;20533;-93
2022/01/24 13:35:40;;;;;;;9.13;6.33;;;11.30;95.50;;;;;;5090162;28;20459;-90
2022/01/24 13:38:11;;;;;;;4.80;4.30;;;10.30;95.80;;;;;;5102158;28;20489;-92
2022/01/24 13:40:41;;;;;;;4.70;4.13;;;10.30;97.10;;;;;;5093912;28;20500;-92
2022/01/24 13:43:09;;;;;;;8.20;4.10;;;10.20;97.20;;;;;;5053146;28;20449;-93
2022/01/24 13:45:39;;;;;;;5.63;4.17;;;10.60;96.40;;;;;;5088072;28;20455;-92
2022/01/24 13:48:07;;;;;;;5.17;3.73;;;11.20;96.10;;;;;;5085359;28;20453;-90
2022/01/24 13:50:34;;;;;;;6.90;3.40;;;;;;;;;;5088974;28;20899;-90
2022/01/24 13:53:01;;;;;;;4.90;3.53;;;;;;;;;;5088036;28;20442;-89
2022/01/24 13:55:31;;;;;;;6.60;3.50;;;;;;;;;;5085587;28;20426;-93
2022/01/24 13:57:59;;;;;;;3.90;3.20;;;;;;;;;;5086707;28;20433;-91
2022/01/24 14:00:28;;;;;;;7.83;3.40;;;10.60;96.30;;;;;;5088316;28;20486;-92
2022/01/24 14:03:08;;;;;;;5.37;3.50;;;;;;;;;;5084426;28;20479;-90
2022/01/24 14:05:35;;;;;;;7.10;3.50;;;;;;;;;;5083839;28;20458;-92
2022/01/24 14:08:20;;;;;;;12.53;3.93;;;12.00;94.60;;;;;;5080929;28;20433;-90
2022/01/24 14:10:50;;;;;;;4.90;3.57;;;;;;;;;;5077570;28;20449;-90
2022/01/24 14:13:23;;;;;;;6.07;3.60;;;;;;;;;;5079040;28;20529;-90
2022/01/24 14:15:57;;;;;;;5.60;3.97;;;;;;;;;;5075336;28;20456;-90
2022/01/24 14:18:29;;;;;;;4.67;3.43;;;;;;;;;;5073327;28;20908;-90
2022/01/24 14:21:08;;;;;;;5.87;4.03;;;11.00;95.90;;;;;;5059984;28;20573;-90
2022/01/24 14:23:38;;;;;;;9.03;4.70;;;11.20;95.30;;;;;;5056652;28;20448;-91
2022/01/24 14:26:18;;;;;;;5.67;4.10;;;11.50;96.10;;;;;;5057627;28;20487;-90
2022/01/24 14:28:46;;;;;;;6.93;4.40;;;11.50;95.70;;;;;;5055408;28;20484;-90
2022/01/24 14:31:15;;;;;;;5.83;4.30;;;;;;;;;;5058026;28;20446;-90
2022/01/24 14:33:43;;;;;;;4.80;4.30;;;11.20;96.20;;;;;;5061145;28;20457;-90
2022/01/24 14:36:13;;;;;;;9.83;4.60;;;11.30;96.00;;;;;;5064110;28;20447;-91
2022/01/24 14:38:42;;;;;;;7.43;4.70;;;11.50;96.00;;;;;;5062461;28;20509;-91
2022/01/24 14:41:10;;;;;;;5.73;4.30;;;11.20;96.40;;;;;;5065915;28;20551;-91
2022/01/24 14:46:28;;;;;;;4.70;3.40;;;10.90;96.60;;;;;;5062228;28;20475;-92
2022/01/24 14:48:57;;;;;;;7.07;4.20;;;11.00;96.80;;;;;;5061178;28;20435;-91
2022/01/24 14:51:28;;;;;;;6.17;4.30;;;10.90;96.90;;;;;;5065329;28;20449;-90
2022/01/24 14:53:59;;;;;;;8.90;4.00;;;11.20;96.60;;;;;;5083268;23;20525;-90
2022/01/24 14:56:26;;;;;;;4.60;4.00;;;;;;;;;;5085008;28;20955;-91
2022/01/24 14:59:10;;;;;;;7.63;4.70;;;11.00;96.50;;;;;;5087442;23;20562;-93
2022/01/24 15:01:37;;;;;;;5.30;3.37;;;;;;;;;;5048761;23;20588;-91
2022/01/24 15:04:06;;;;;;;9.33;4.20;;;10.60;96.70;;;;;;5039939;28;20523;-88
2022/01/24 15:06:34;;;;;;;6.97;3.43;;;;;;;;;;5043384;28;20453;-90
2022/01/24 15:09:04;;;;;;;5.57;4.83;;;10.20;97.20;;;;;;5042490;28;20455;-90
2022/01/24 15:11:32;;;;;;;4.73;3.93;;;;;;;;;;5046774;28;20437;-91
2022/01/24 15:14:03;;;;;;;6.90;3.73;;;;;;;;;;5045832;28;20803;-91
2022/01/24 15:16:39;;;;;;;4.40;3.93;;;9.80;98.90;;;;;;5045903;28;20459;-89
2022/01/24 15:25:17;;;;;;;4.87;3.27;;;;;;;;;;5045462;28;20423;-90
2022/01/24 15:27:28;;;;;;;6.57;3.80;;;;;;;;;;5049868;28;20506;-91
2022/01/24 15:29:59;;;;;;;4.63;4.23;;;;;;;;;;5067975;28;20418;-89
2022/01/24 15:32:29;;;;;;;6.20;3.60;;;7.50;99.90;;;;;;5048215;28;20445;-92
2022/01/24 15:34:56;;;;;;;5.43;3.20;;;;;;;;;;5048365;28;20443;-89
2022/01/24 15:37:23;;;;;;;9.23;4.20;;;;;;;;;;5064777;28;20449;-89
2022/01/24 15:39:53;;;;;;;5.80;3.70;;;;;;;;;;5065485;28;20485;-91
2022/01/24 15:42:33;;;;;;;5.43;3.20;;;;;;;;;;5066893;28;20460;-90
2022/01/24 15:45:26;;;;;;;17.50;15.77;;;7.00;99.90;;;;;;5062223;28;20444;-91